Sweet Water, Illinois
Current Conditions -  °F | °C
As of 11:35 PM on Wednesday 26 Nov 2014 (Local Time) from KPPQ Reporting Station
Overcast Overcast  
Wind Chill: 21°   Ceiling: 800
Heat Index: 30°   Visibility: 5mi
Dew Point: 28°   Wind: 12mph
Humidity: 92%   Direction: 360°N
Pressure: 30.25"   Gusts: NA
Location:  39.7431°N, 90.5444°W
Report Text: KPPQ 270535Z AUTO 36010KT 5SM OVC008 M01/M02 A3025 RMK AO2 T10101021 PWINO
Loading
Personal Weather Stations






























Interactive Weather Map New forecast layout! Learn more

10-Day Weather Forecast

Advertisements
Track Severe Weather on mobile